Time;durP1;ratioP1;P1;durP2;ratioP2;P2;SDS_P1;SDS_P2;PMS_P1;PMS_P2;Temp;Humidity;BMP_temperature;BMP_pressure;BME280_temperature;BME280_humidity;BME280_pressure;Samples;Min_cycle;Max_cycle;Signal;HPM_P1;HPM_P2
2022/10/26 00:02:14;;;;;;;5.63;2.33;;;12.40;99.90;;;;;;5092800;28;20200;-37
2022/10/26 00:04:39;;;;;;;4.40;2.67;;;12.40;99.90;;;;;;5092712;28;20191;-38
2022/10/26 00:07:05;;;;;;;2.70;1.90;;;12.40;99.90;;;;;;5092589;28;20246;-37
2022/10/26 00:09:30;;;;;;;3.13;1.70;;;12.50;99.90;;;;;;5092462;28;20204;-39
2022/10/26 00:11:56;;;;;;;5.20;2.40;;;12.60;99.90;;;;;;5092775;28;20181;-37
2022/10/26 00:14:22;;;;;;;6.13;3.70;;;12.50;99.90;;;;;;5092334;28;20188;-38
2022/10/26 00:16:48;;;;;;;3.83;2.07;;;12.60;99.90;;;;;;5092675;28;20313;-37
2022/10/26 00:19:14;;;;;;;3.30;2.30;;;12.70;99.90;;;;;;5092147;28;20489;-38
2022/10/26 00:21:39;;;;;;;2.40;1.80;;;12.70;99.90;;;;;;5092625;28;20196;-37
2022/10/26 00:24:05;;;;;;;4.80;2.00;;;12.70;99.90;;;;;;5092244;28;20255;-37
2022/10/26 00:26:31;;;;;;;2.93;2.30;;;12.80;99.90;;;;;;5092563;28;20184;-38
2022/10/26 00:28:57;;;;;;;3.47;2.53;;;12.80;99.90;;;;;;5091902;28;20318;-37
2022/10/26 00:31:23;;;;;;;2.83;2.10;;;12.80;99.90;;;;;;5091198;28;20246;-37
2022/10/26 00:33:55;;;;;;;5.90;2.10;;;12.90;99.90;;;;;;5091992;28;20418;-37
2022/10/26 00:36:22;;;;;;;4.70;1.97;;;13.00;99.90;;;;;;5092320;28;20916;-37
2022/10/26 00:38:55;;;;;;;3.07;1.87;;;13.00;99.90;;;;;;5091787;28;20403;-37
2022/10/26 00:41:28;;;;;;;3.53;1.83;;;13.00;99.90;;;;;;5092154;28;20403;-37
2022/10/26 00:43:54;;;;;;;5.60;2.70;;;13.00;99.90;;;;;;5091770;28;20422;-37
2022/10/26 00:46:37;;;;;;;4.50;1.93;;;13.10;99.90;;;;;;5091978;28;20413;-38
2022/10/26 00:49:13;;;;;;;4.40;1.90;;;13.10;99.90;;;;;;5091607;28;20406;-38
2022/10/26 00:51:42;;;;;;;2.87;1.90;;;13.10;99.90;;;;;;5091932;28;20413;-37
2022/10/26 00:54:17;;;;;;;5.30;2.10;;;13.10;99.90;;;;;;5091416;28;20472;-38
2022/10/26 00:56:44;;;;;;;4.80;2.00;;;13.20;99.90;;;;;;5090350;28;20418;-37
2022/10/26 00:59:12;;;;;;;5.23;1.90;;;13.10;99.90;;;;;;5091516;28;20944;-37
2022/10/26 01:01:41;;;;;;;2.80;2.00;;;13.20;99.90;;;;;;5091692;28;20421;-37
2022/10/26 01:04:07;;;;;;;4.43;2.10;;;13.20;99.90;;;;;;5091307;28;20422;-37
2022/10/26 01:06:35;;;;;;;1.77;1.67;;;13.20;99.90;;;;;;5091426;28;20639;-37
2022/10/26 01:09:00;;;;;;;2.50;1.57;;;13.30;99.90;;;;;;5091308;28;20176;-37
2022/10/26 01:11:26;;;;;;;2.50;1.80;;;13.30;99.90;;;;;;5090817;28;20411;-37
2022/10/26 01:13:55;;;;;;;3.53;1.90;;;13.20;99.90;;;;;;5091442;28;20222;-37
2022/10/26 01:16:49;;;;;;;3.13;2.10;;;13.30;99.90;;;;;;5091344;28;20693;-37
2022/10/26 01:19:57;;;;;;;5.50;2.30;;;13.30;99.90;;;;;;5091135;28;20407;-37
2022/10/26 01:22:33;;;;;;;4.30;2.00;;;13.30;99.90;;;;;;5070149;28;20505;-37
2022/10/26 01:25:07;;;;;;;5.27;2.13;;;13.40;99.90;;;;;;5070993;28;20403;-37
2022/10/26 01:27:36;;;;;;;3.87;2.10;;;13.40;99.90;;;;;;5070882;28;20482;-37
2022/10/26 01:30:20;;;;;;;5.03;1.60;;;13.40;99.90;;;;;;5070554;28;20502;-38
2022/10/26 01:33:07;;;;;;;2.63;1.60;;;13.40;99.90;;;;;;5070655;28;20415;-37
2022/10/26 01:35:49;;;;;;;3.77;1.87;;;13.40;99.90;;;;;;5070754;28;20415;-37
2022/10/26 01:38:25;;;;;;;2.03;1.60;;;13.40;99.90;;;;;;5070985;28;20414;-37
2022/10/26 01:40:51;;;;;;;5.43;1.90;;;13.40;99.90;;;;;;5070675;28;20506;-38
2022/10/26 01:43:18;;;;;;;2.77;1.80;;;13.40;99.90;;;;;;5070529;28;20871;-37
2022/10/26 01:45:47;;;;;;;3.33;2.03;;;13.40;99.90;;;;;;5070531;28;20173;-37
2022/10/26 01:48:16;;;;;;;2.87;1.80;;;13.40;99.90;;;;;;5070485;28;20407;-38
2022/10/26 01:50:45;;;;;;;3.27;1.60;;;13.50;99.90;;;;;;5070149;28;20462;-38
2022/10/26 01:53:12;;;;;;;3.10;1.90;;;13.60;99.90;;;;;;5070358;28;20415;-38
2022/10/26 01:55:44;;;;;;;3.67;1.60;;;13.60;99.90;;;;;;5069694;28;20416;-37
2022/10/26 01:58:22;;;;;;;3.67;1.90;;;13.60;99.90;;;;;;5070335;28;20408;-37
2022/10/26 02:01:06;;;;;;;3.30;1.70;;;13.60;99.90;;;;;;5070130;28;20460;-37
2022/10/26 02:03:49;;;;;;;2.63;1.70;;;13.60;99.90;;;;;;5070151;28;20452;-37
2022/10/26 02:06:38;;;;;;;6.87;2.37;;;13.70;99.90;;;;;;5070314;28;20442;-37
2022/10/26 02:09:23;;;;;;;2.83;1.60;;;13.70;99.90;;;;;;5070015;28;20450;-37
2022/10/26 02:11:52;;;;;;;3.53;1.47;;;13.70;99.90;;;;;;5070020;28;20423;-37
2022/10/26 02:14:39;;;;;;;3.40;1.43;;;13.70;99.90;;;;;;5070073;28;20909;-37
2022/10/26 02:17:14;;;;;;;2.57;1.67;;;13.80;99.90;;;;;;5070204;28;20411;-37
2022/10/26 02:19:48;;;;;;;2.73;1.80;;;13.80;99.90;;;;;;5069858;28;20419;-38
2022/10/26 02:22:24;;;;;;;6.50;1.97;;;13.90;99.90;;;;;;5070004;28;20507;-37
2022/10/26 02:24:52;;;;;;;2.00;1.20;;;13.90;99.90;;;;;;5069202;28;20695;-37
2022/10/26 02:27:31;;;;;;;3.90;1.57;;;13.90;99.90;;;;;;5070028;28;20890;-37
2022/10/26 02:30:00;;;;;;;3.93;1.80;;;13.90;99.90;;;;;;5069558;28;20451;-37
2022/10/26 02:32:31;;;;;;;7.93;1.70;;;13.90;99.90;;;;;;5070033;28;20438;-37
2022/10/26 02:35:00;;;;;;;3.27;1.50;;;13.90;99.90;;;;;;5069832;28;20494;-37
2022/10/26 02:37:28;;;;;;;3.50;1.87;;;14.00;99.90;;;;;;5070016;28;20530;-37
2022/10/26 02:39:55;;;;;;;6.17;1.50;;;14.00;99.90;;;;;;5069331;28;20419;-37
2022/10/26 02:42:22;;;;;;;5.23;2.00;;;14.00;99.90;;;;;;5069737;28;20429;-37
2022/10/26 02:44:52;;;;;;;3.10;1.60;;;14.10;99.90;;;;;;5069662;28;20506;-37
2022/10/26 02:47:18;;;;;;;4.60;1.97;;;14.10;99.90;;;;;;5069904;28;20411;-37
2022/10/26 02:49:44;;;;;;;5.73;1.97;;;14.00;99.90;;;;;;5069283;28;20459;-37
2022/10/26 02:52:43;;;;;;;2.43;1.50;;;14.10;99.90;;;;;;5070006;28;20959;-37
2022/10/26 02:55:45;;;;;;;2.67;1.87;;;14.10;99.90;;;;;;5068786;28;20721;-37
2022/10/26 02:58:26;;;;;;;3.37;1.97;;;14.10;99.90;;;;;;5070013;28;20438;-37
2022/10/26 03:00:52;;;;;;;4.03;1.90;;;14.20;99.90;;;;;;5069615;28;20933;-37
2022/10/26 03:03:18;;;;;;;3.50;1.60;;;14.20;99.90;;;;;;5069257;28;20412;-37
2022/10/26 03:05:44;;;;;;;3.57;1.80;;;14.20;99.90;;;;;;5069405;28;20832;-37
2022/10/26 03:08:10;;;;;;;3.80;1.80;;;14.20;99.90;;;;;;5069842;28;20415;-37
2022/10/26 03:10:45;;;;;;;3.30;1.70;;;14.30;99.90;;;;;;5067980;28;20215;-37
2022/10/26 03:13:12;;;;;;;4.00;1.67;;;14.20;99.90;;;;;;5069472;28;20173;-37
2022/10/26 03:15:38;;;;;;;3.70;1.80;;;14.30;99.90;;;;;;5069372;28;20423;-37
2022/10/26 03:18:04;;;;;;;2.77;1.73;;;14.30;99.90;;;;;;5069862;28;20795;-37
2022/10/26 03:20:31;;;;;;;2.20;1.60;;;14.30;99.90;;;;;;5075797;28;20769;-38
2022/10/26 03:22:56;;;;;;;3.87;1.43;;;14.40;99.90;;;;;;5089719;28;20403;-37
2022/10/26 03:25:25;;;;;;;2.80;1.50;;;14.40;99.90;;;;;;5089473;28;20997;-37
2022/10/26 03:28:02;;;;;;;1.93;1.73;;;14.40;99.90;;;;;;5089688;28;20180;-37
2022/10/26 03:30:29;;;;;;;7.83;1.43;;;14.50;99.90;;;;;;5087881;28;20978;-37
2022/10/26 03:32:55;;;;;;;3.97;1.80;;;14.50;99.90;;;;;;5089596;28;20757;-37
2022/10/26 03:35:21;;;;;;;4.23;1.90;;;14.50;99.90;;;;;;5091264;28;20411;-37
2022/10/26 03:37:46;;;;;;;4.87;1.57;;;14.50;99.90;;;;;;5092184;28;20498;-38
2022/10/26 03:40:12;;;;;;;8.17;1.83;;;14.60;99.90;;;;;;5093105;28;20210;-38
2022/10/26 03:42:38;;;;;;;4.20;1.70;;;14.60;99.90;;;;;;5093025;28;20954;-37
2022/10/26 03:45:05;;;;;;;1.80;1.50;;;14.60;99.90;;;;;;5093278;28;20210;-38
2022/10/26 03:47:31;;;;;;;5.07;1.20;;;14.50;99.90;;;;;;5093159;28;21026;-38
2022/10/26 03:49:56;;;;;;;2.97;1.60;;;14.50;99.90;;;;;;5092873;28;20450;-38
2022/10/26 03:52:23;;;;;;;5.23;1.83;;;14.50;99.90;;;;;;5093000;28;20172;-37
2022/10/26 03:54:49;;;;;;;3.30;1.90;;;14.50;99.90;;;;;;5092669;28;20206;-37
2022/10/26 03:57:15;;;;;;;1.80;1.40;;;14.60;99.90;;;;;;5091925;28;20418;-37
2022/10/26 03:59:41;;;;;;;2.60;1.77;;;14.60;99.90;;;;;;5092674;28;20420;-37
2022/10/26 04:02:07;;;;;;;2.83;2.03;;;14.60;99.90;;;;;;5092921;28;20463;-38
2022/10/26 04:04:32;;;;;;;2.83;1.70;;;14.60;99.90;;;;;;5092901;28;20581;-38
2022/10/26 04:06:58;;;;;;;3.10;1.60;;;14.60;99.90;;;;;;5092773;28;20192;-38
2022/10/26 04:09:23;;;;;;;4.87;1.80;;;14.60;99.90;;;;;;5091390;28;20204;-38
2022/10/26 04:11:49;;;;;;;3.33;1.77;;;14.70;99.90;;;;;;5092640;28;20196;-37
2022/10/26 04:14:15;;;;;;;7.10;1.80;;;14.70;99.90;;;;;;5092299;28;20214;-37
2022/10/26 04:16:40;;;;;;;2.23;1.63;;;14.70;99.90;;;;;;5092783;28;20206;-37
2022/10/26 04:19:06;;;;;;;2.30;1.30;;;14.70;99.90;;;;;;5092298;28;20180;-38
2022/10/26 04:21:32;;;;;;;2.13;1.27;;;14.70;99.90;;;;;;5092649;28;20655;-37
2022/10/26 04:23:57;;;;;;;3.27;1.60;;;14.70;99.90;;;;;;5092178;28;20539;-37
2022/10/26 04:26:23;;;;;;;3.33;1.67;;;14.70;99.90;;;;;;5092494;28;20317;-38
2022/10/26 04:28:49;;;;;;;2.93;1.43;;;14.80;99.90;;;;;;5091916;28;20188;-37
2022/10/26 04:31:14;;;;;;;4.70;1.73;;;14.80;99.90;;;;;;5092493;28;20258;-38
2022/10/26 04:33:40;;;;;;;3.10;1.57;;;14.80;99.90;;;;;;5091977;28;20301;-37
2022/10/26 04:36:06;;;;;;;3.10;1.37;;;14.90;99.90;;;;;;5092467;28;20680;-37
2022/10/26 04:38:32;;;;;;;5.60;1.77;;;14.90;99.90;;;;;;5090518;28;20195;-38
2022/10/26 04:40:57;;;;;;;5.13;1.70;;;14.90;99.90;;;;;;5092266;28;20889;-37
2022/10/26 04:43:23;;;;;;;3.90;1.87;;;15.00;99.90;;;;;;5091649;28;20181;-37
2022/10/26 04:45:49;;;;;;;1.37;1.20;;;15.00;99.90;;;;;;5091629;28;20206;-38
2022/10/26 04:48:14;;;;;;;7.40;1.37;;;15.10;99.90;;;;;;5091656;28;20187;-37
2022/10/26 04:50:40;;;;;;;9.93;2.10;;;15.10;99.90;;;;;;5091558;28;20678;-37
2022/10/26 04:53:08;;;;;;;5.30;1.50;;;15.10;99.90;;;;;;5091876;28;20251;-38
2022/10/26 04:55:34;;;;;;;1.80;1.50;;;15.10;99.90;;;;;;5091101;28;20192;-37
2022/10/26 04:58:00;;;;;;;4.20;1.37;;;15.10;99.90;;;;;;5091801;28;20426;-38
2022/10/26 05:00:26;;;;;;;2.43;1.60;;;15.10;99.90;;;;;;5090008;28;20456;-37
2022/10/26 05:02:57;;;;;;;6.10;1.53;;;15.10;99.90;;;;;;5091691;28;20243;-37
2022/10/26 05:05:23;;;;;;;5.77;1.40;;;15.10;99.90;;;;;;5091639;28;20806;-37
2022/10/26 05:07:56;;;;;;;4.37;1.43;;;15.10;99.90;;;;;;5091733;28;20411;-37
2022/10/26 05:10:22;;;;;;;3.90;1.17;;;15.10;99.90;;;;;;5090897;28;20208;-37
2022/10/26 05:12:52;;;;;;;2.83;1.30;;;15.10;99.90;;;;;;5091198;28;20892;-37
2022/10/26 05:15:18;;;;;;;4.70;1.40;;;15.10;99.90;;;;;;5091462;28;20418;-37
2022/10/26 05:17:43;;;;;;;3.00;1.70;;;15.20;99.90;;;;;;5091615;28;20407;-37
2022/10/26 05:20:12;;;;;;;5.07;1.53;;;15.20;99.90;;;;;;5090904;28;20729;-37
2022/10/26 05:22:39;;;;;;;2.60;1.43;;;15.20;99.90;;;;;;5091211;28;20191;-37
2022/10/26 05:25:05;;;;;;;3.63;1.60;;;15.10;99.90;;;;;;5091128;28;20438;-38
2022/10/26 05:27:30;;;;;;;1.90;1.30;;;15.10;99.90;;;;;;5091359;28;20411;-37
2022/10/26 05:29:56;;;;;;;3.53;1.20;;;15.20;99.90;;;;;;5090899;28;20463;-37
2022/10/26 05:32:22;;;;;;;5.90;2.00;;;15.10;99.90;;;;;;5091047;28;20221;-39
2022/10/26 05:34:47;;;;;;;2.67;1.70;;;15.20;99.90;;;;;;5091221;28;20184;-37
2022/10/26 05:37:13;;;;;;;1.90;1.23;;;15.20;99.90;;;;;;5090935;28;20169;-37
2022/10/26 05:39:39;;;;;;;2.60;1.10;;;15.20;99.90;;;;;;5090736;28;20584;-37
2022/10/26 05:42:04;;;;;;;1.73;1.00;;;15.20;99.90;;;;;;5091077;28;20188;-38
2022/10/26 05:44:30;;;;;;;6.27;1.40;;;15.20;99.90;;;;;;5090949;28;20188;-37
2022/10/26 05:46:56;;;;;;;2.10;1.30;;;15.20;99.90;;;;;;5090905;28;20189;-37
2022/10/26 05:49:21;;;;;;;2.67;1.30;;;15.20;99.90;;;;;;5090608;28;20212;-37
2022/10/26 05:51:47;;;;;;;2.13;1.00;;;15.10;99.90;;;;;;5090749;28;20172;-37
2022/10/26 05:54:12;;;;;;;2.00;1.30;;;15.20;99.90;;;;;;5090417;28;20642;-37
2022/10/26 05:56:39;;;;;;;3.00;1.20;;;15.20;99.90;;;;;;5089828;28;20180;-37
2022/10/26 05:59:15;;;;;;;6.63;1.60;;;15.20;99.90;;;;;;5090452;28;20189;-37
2022/10/26 06:01:55;;;;;;;1.67;1.17;;;15.20;99.90;;;;;;5090712;28;20407;-37
2022/10/26 06:04:31;;;;;;;2.50;1.77;;;15.20;99.90;;;;;;5090484;28;20410;-37
2022/10/26 06:06:58;;;;;;;4.43;1.10;;;15.20;99.90;;;;;;5090315;28;20818;-37
2022/10/26 06:09:24;;;;;;;2.60;1.53;;;15.10;99.90;;;;;;5090282;28;20800;-37
2022/10/26 06:11:50;;;;;;;2.07;1.40;;;15.10;99.90;;;;;;5090468;28;20421;-37
2022/10/26 06:14:16;;;;;;;3.30;1.37;;;15.10;99.90;;;;;;5090273;28;20395;-37
2022/10/26 06:17:02;;;;;;;4.00;1.97;;;15.00;99.90;;;;;;5090428;28;20443;-38
2022/10/26 06:19:33;;;;;;;3.53;1.20;;;15.00;99.90;;;;;;5090165;28;20419;-37
2022/10/26 06:22:05;;;;;;;3.07;1.40;;;15.00;99.90;;;;;;5090166;28;20426;-37
2022/10/26 06:24:59;;;;;;;1.60;1.10;;;15.00;99.90;;;;;;5090141;28;20505;-38
2022/10/26 06:27:39;;;;;;;1.43;1.30;;;15.00;99.90;;;;;;5089856;28;20411;-38
2022/10/26 06:30:08;;;;;;;3.13;1.30;;;15.00;99.90;;;;;;5089835;28;20450;-37
2022/10/26 06:32:35;;;;;;;3.53;1.30;;;15.00;99.90;;;;;;5090100;28;20434;-38
2022/10/26 06:35:12;;;;;;;2.37;1.60;;;15.10;99.90;;;;;;5090188;28;20445;-37
2022/10/26 06:37:40;;;;;;;2.70;1.50;;;15.10;99.90;;;;;;5090282;28;20406;-38
2022/10/26 06:40:06;;;;;;;4.70;1.67;;;15.10;99.90;;;;;;5089504;28;20438;-38
2022/10/26 06:42:32;;;;;;;2.00;1.40;;;15.10;99.90;;;;;;5090094;28;20483;-37
2022/10/26 06:44:58;;;;;;;2.10;1.30;;;15.10;99.90;;;;;;5090067;28;20418;-38
2022/10/26 06:47:53;;;;;;;2.77;1.13;;;15.10;99.90;;;;;;5090118;28;20196;-37
2022/10/26 06:50:41;;;;;;;3.17;1.87;;;15.10;99.90;;;;;;5089241;28;20483;-37
2022/10/26 06:53:24;;;;;;;8.60;1.23;;;15.10;99.90;;;;;;5089849;28;20426;-37
2022/10/26 06:55:51;;;;;;;3.00;1.27;;;15.10;99.90;;;;;;5089186;28;20422;-37
2022/10/26 06:58:19;;;;;;;3.00;1.30;;;15.10;99.90;;;;;;5090120;28;20428;-37
2022/10/26 07:00:48;;;;;;;4.40;1.20;;;15.20;99.90;;;;;;5089306;28;20410;-38
2022/10/26 07:03:14;;;;;;;6.70;1.30;;;15.20;99.90;;;;;;5088446;28;20421;-38
2022/10/26 07:05:40;;;;;;;1.97;1.50;;;15.20;99.90;;;;;;5089603;28;20434;-37
2022/10/26 07:08:06;;;;;;;4.23;1.13;;;15.20;99.90;;;;;;5089995;28;20792;-37
2022/10/26 07:10:34;;;;;;;3.70;1.13;;;15.20;99.90;;;;;;5091781;28;20457;-37
2022/10/26 07:12:59;;;;;;;4.27;1.20;;;15.20;99.90;;;;;;5093779;28;20176;-37
2022/10/26 07:15:25;;;;;;;5.33;1.17;;;15.20;99.90;;;;;;5092404;28;20406;-38
2022/10/26 07:17:51;;;;;;;1.77;1.27;;;15.20;99.90;;;;;;5093950;28;20176;-38
2022/10/26 07:20:19;;;;;;;1.97;1.00;;;15.20;99.90;;;;;;5093427;28;20181;-38
2022/10/26 07:22:49;;;;;;;2.00;1.03;;;15.30;99.90;;;;;;5093650;28;20598;-37
2022/10/26 07:25:15;;;;;;;2.40;1.20;;;15.20;99.90;;;;;;5093621;28;20410;-38
2022/10/26 07:27:41;;;;;;;2.60;1.03;;;15.30;99.90;;;;;;5093712;28;20815;-37
2022/10/26 07:30:07;;;;;;;7.20;1.43;;;15.30;99.90;;;;;;5092986;28;20239;-37
2022/10/26 07:32:33;;;;;;;1.40;1.00;;;15.30;99.90;;;;;;5093573;28;20665;-38
2022/10/26 07:34:58;;;;;;;2.33;0.97;;;15.40;99.90;;;;;;5093681;28;20414;-37
2022/10/26 07:37:24;;;;;;;2.20;1.17;;;15.40;99.90;;;;;;5093440;28;20179;-38
2022/10/26 07:39:49;;;;;;;2.40;0.93;;;15.50;99.90;;;;;;5091996;28;20180;-38
2022/10/26 07:42:15;;;;;;;1.67;1.47;;;15.50;99.90;;;;;;5093300;28;20189;-38
2022/10/26 07:44:41;;;;;;;1.77;1.10;;;15.60;99.90;;;;;;5092992;28;20185;-38
2022/10/26 07:47:06;;;;;;;2.20;0.90;;;15.60;99.90;;;;;;5091947;28;20180;-38
2022/10/26 07:49:33;;;;;;;3.33;1.10;;;15.60;99.90;;;;;;5093198;28;20298;-38
2022/10/26 07:51:58;;;;;;;1.73;1.00;;;15.70;99.90;;;;;;5093134;28;20226;-37
2022/10/26 07:54:24;;;;;;;2.43;1.23;;;15.70;99.90;;;;;;5093043;28;20414;-37
2022/10/26 07:56:50;;;;;;;4.57;1.30;;;15.70;99.90;;;;;;5092067;28;20187;-38
2022/10/26 07:59:18;;;;;;;1.90;0.83;;;15.70;99.90;;;;;;5092552;28;20183;-38
2022/10/26 08:01:44;;;;;;;1.30;1.20;;;15.70;99.90;;;;;;5093120;28;20176;-38
2022/10/26 08:04:10;;;;;;;1.70;1.40;;;15.70;99.90;;;;;;5092627;28;20415;-38
2022/10/26 08:06:36;;;;;;;2.03;1.20;;;15.80;99.90;;;;;;5092875;28;20227;-37
2022/10/26 08:09:02;;;;;;;2.27;1.13;;;15.90;99.90;;;;;;5092395;28;20169;-38
2022/10/26 08:11:27;;;;;;;4.30;1.40;;;16.00;99.90;;;;;;5092828;28;20459;-37
2022/10/26 08:13:54;;;;;;;1.90;1.20;;;16.10;99.90;;;;;;5092455;28;20202;-38
2022/10/26 08:16:20;;;;;;;1.97;1.13;;;16.20;99.90;;;;;;5092647;28;20187;-38
2022/10/26 08:18:50;;;;;;;2.63;1.23;;;16.40;99.90;;;;;;5092154;28;20514;-38
2022/10/26 08:21:16;;;;;;;2.13;1.17;;;16.70;99.90;;;;;;5089920;28;20529;-39
2022/10/26 08:23:42;;;;;;;4.77;1.37;;;17.00;99.90;;;;;;5092329;28;20462;-40
2022/10/26 08:26:10;;;;;;;3.00;1.40;;;17.30;99.90;;;;;;5092299;28;20422;-38
2022/10/26 08:28:36;;;;;;;4.47;1.20;;;17.60;99.90;;;;;;5092123;28;20192;-38
2022/10/26 08:31:03;;;;;;;2.60;1.23;;;17.80;99.90;;;;;;5092335;28;20458;-39
2022/10/26 08:33:29;;;;;;;2.13;1.40;;;18.00;99.90;;;;;;5092223;28;20402;-38
2022/10/26 08:36:02;;;;;;;2.20;1.93;;;17.90;99.90;;;;;;5092286;28;20414;-39
2022/10/26 08:38:28;;;;;;;2.10;1.20;;;17.80;99.90;;;;;;5092111;28;20260;-38
2022/10/26 08:40:56;;;;;;;4.60;1.60;;;17.60;99.90;;;;;;5092047;28;20556;-37
2022/10/26 08:43:52;;;;;;;4.40;1.40;;;17.40;99.90;;;;;;5092087;28;20773;-38
2022/10/26 08:46:29;;;;;;;3.00;1.47;;;17.50;99.90;;;;;;5020010;28;20788;-37
2022/10/26 08:49:03;;;;;;;2.10;1.40;;;17.70;99.90;;;;;;5091844;28;20456;-38
2022/10/26 08:51:36;;;;;;;2.70;1.30;;;18.10;99.90;;;;;;5092109;28;20424;-41
2022/10/26 08:54:16;;;;;;;2.27;1.10;;;18.40;99.90;;;;;;5091825;28;20410;-37
2022/10/26 08:56:43;;;;;;;1.80;1.10;;;18.60;99.90;;;;;;5090849;28;20414;-38
2022/10/26 08:59:39;;;;;;;3.03;1.20;;;18.90;99.90;;;;;;5091772;28;20464;-38
2022/10/26 09:02:15;;;;;;;1.43;1.07;;;19.00;99.90;;;;;;5091902;28;20506;-39
2022/10/26 09:04:43;;;;;;;3.17;1.20;;;19.00;99.90;;;;;;5091663;28;20410;-38
2022/10/26 09:07:45;;;;;;;3.10;1.53;;;19.00;99.90;;;;;;5091566;28;20468;-38
2022/10/26 09:10:35;;;;;;;4.53;1.70;;;19.10;99.90;;;;;;5091243;28;20501;-39
2022/10/26 09:13:10;;;;;;;4.13;1.53;;;19.20;99.90;;;;;;5091481;28;20414;-39
2022/10/26 09:15:44;;;;;;;3.43;1.50;;;19.30;99.90;;;;;;5091508;28;20470;-38
2022/10/26 09:18:28;;;;;;;5.70;2.50;;;19.30;99.90;;;;;;5091501;28;20477;-38
2022/10/26 09:21:12;;;;;;;3.23;1.50;;;19.40;99.90;;;;;;5091339;28;20480;-38
2022/10/26 09:24:02;;;;;;;2.93;1.47;;;19.50;99.90;;;;;;5091302;28;20409;-38
2022/10/26 09:26:32;;;;;;;3.53;1.70;;;19.60;99.90;;;;;;5091190;28;20442;-39
2022/10/26 09:29:04;;;;;;;5.20;1.43;;;19.70;99.90;;;;;;5091027;28;20425;-40
2022/10/26 09:31:40;;;;;;;2.83;2.10;;;19.80;99.90;;;;;;5091146;28;20479;-38
2022/10/26 09:34:07;;;;;;;2.63;1.40;;;20.00;99.90;;;;;;5090793;28;20799;-38
2022/10/26 09:36:35;;;;;;;3.10;1.80;;;20.20;99.90;;;;;;5089923;28;20409;-38
2022/10/26 09:39:26;;;;;;;4.13;1.63;;;20.30;99.90;;;;;;5090749;28;20780;-38
2022/10/26 09:42:05;;;;;;;6.37;1.50;;;20.30;99.90;;;;;;5090961;28;20959;-38
2022/10/26 09:44:41;;;;;;;9.17;2.10;;;20.20;99.90;;;;;;5090889;28;20410;-40
2022/10/26 09:47:30;;;;;;;2.87;1.50;;;20.10;99.90;;;;;;5090884;28;20406;-38
2022/10/26 09:50:05;;;;;;;2.47;1.50;;;19.90;99.90;;;;;;5090748;28;20450;-38
2022/10/26 09:52:31;;;;;;;2.47;1.60;;;19.60;99.90;;;;;;5090759;28;20410;-37
2022/10/26 09:54:57;;;;;;;2.87;1.60;;;19.40;99.90;;;;;;5090140;28;20738;-41
2022/10/26 09:57:23;;;;;;;3.47;1.53;;;19.30;99.90;;;;;;5089734;28;20204;-38
2022/10/26 09:59:51;;;;;;;1.90;1.30;;;19.30;99.90;;;;;;5090398;28;20237;-38
2022/10/26 10:02:33;;;;;;;3.77;1.90;;;19.20;99.90;;;;;;5090793;28;20478;-38
2022/10/26 10:04:59;;;;;;;3.13;1.67;;;19.10;99.90;;;;;;5090814;28;20418;-40
2022/10/26 10:07:25;;;;;;;6.17;2.20;;;19.10;99.90;;;;;;5090471;28;20445;-38
2022/10/26 10:10:21;;;;;;;1.50;1.40;;;19.10;99.90;;;;;;5090142;28;20459;-40
2022/10/26 10:12:51;;;;;;;4.60;1.70;;;19.10;99.90;;;;;;5081412;28;20232;-40
2022/10/26 10:15:17;;;;;;;2.90;1.80;;;19.00;99.90;;;;;;5090671;28;20425;-38
2022/10/26 10:17:47;;;;;;;2.70;1.73;;;18.90;99.90;;;;;;5090534;28;20490;-41
2022/10/26 10:20:18;;;;;;;3.30;1.70;;;18.90;99.90;;;;;;5090049;28;20208;-38
2022/10/26 10:22:55;;;;;;;5.90;2.10;;;18.80;99.90;;;;;;5090100;28;20415;-38
2022/10/26 10:25:30;;;;;;;4.73;1.90;;;18.80;99.90;;;;;;5090293;28;20524;-41
2022/10/26 10:27:56;;;;;;;2.07;1.70;;;18.80;99.90;;;;;;5090397;28;20414;-38
2022/10/26 10:30:27;;;;;;;3.37;1.60;;;18.80;99.90;;;;;;5089877;28;20553;-39
2022/10/26 10:33:11;;;;;;;6.17;2.03;;;18.90;99.90;;;;;;5089927;28;20180;-39
2022/10/26 10:35:45;;;;;;;6.50;1.80;;;18.90;99.90;;;;;;5090040;28;20422;-41
2022/10/26 10:38:19;;;;;;;7.43;2.97;;;18.90;99.90;;;;;;5090389;28;20543;-38
2022/10/26 10:40:55;;;;;;;2.60;1.80;;;19.00;99.90;;;;;;5088541;28;20418;-40
2022/10/26 10:43:21;;;;;;;7.03;2.10;;;19.00;99.90;;;;;;5090025;28;20788;-39
2022/10/26 10:45:50;;;;;;;4.20;1.87;;;19.10;99.90;;;;;;5088843;28;20425;-38
2022/10/26 10:48:20;;;;;;;4.03;1.90;;;19.20;99.90;;;;;;5090360;28;20410;-38
2022/10/26 10:51:04;;;;;;;5.73;2.13;;;19.20;99.90;;;;;;5089545;28;20454;-37
2022/10/26 10:53:50;;;;;;;6.67;2.10;;;19.20;99.90;;;;;;5089761;28;20509;-40
2022/10/26 10:56:22;;;;;;;3.67;1.93;;;19.20;99.90;;;;;;5088221;28;20458;-40
2022/10/26 10:59:08;;;;;;;2.73;1.70;;;19.20;99.90;;;;;;5089821;28;20434;-38
2022/10/26 11:02:01;;;;;;;7.10;2.23;;;19.20;99.90;;;;;;5089972;28;20413;-39
2022/10/26 11:05:04;;;;;;;4.40;2.07;;;19.20;99.90;;;;;;5089624;28;20411;-38
2022/10/26 11:07:35;;;;;;;2.60;2.23;;;19.30;99.90;;;;;;5089838;28;21161;-39
2022/10/26 11:10:07;;;;;;;3.37;2.10;;;19.30;99.90;;;;;;5088210;28;20515;-38
2022/10/26 11:12:43;;;;;;;3.20;1.70;;;19.30;99.90;;;;;;5089701;28;20479;-38
2022/10/26 11:15:23;;;;;;;2.70;2.00;;;19.40;99.90;;;;;;5089899;28;20418;-38
2022/10/26 11:18:14;;;;;;;3.40;2.50;;;19.40;99.90;;;;;;5089844;28;20413;-38
2022/10/26 11:20:46;;;;;;;3.43;2.10;;;19.40;99.90;;;;;;5089285;28;20425;-38
2022/10/26 11:23:16;;;;;;;4.33;2.70;;;19.50;99.90;;;;;;5089494;28;20418;-38
2022/10/26 11:26:08;;;;;;;2.57;2.10;;;19.40;99.90;;;;;;5088521;28;20434;-38
2022/10/26 11:28:53;;;;;;;8.80;3.17;;;19.40;99.90;;;;;;5088092;28;20422;-40
2022/10/26 11:31:36;;;;;;;4.50;2.23;;;19.40;99.90;;;;;;5089513;28;20450;-38
2022/10/26 11:34:28;;;;;;;5.90;2.40;;;19.60;99.90;;;;;;5089540;28;20463;-38
2022/10/26 11:37:04;;;;;;;4.20;2.67;;;19.70;99.90;;;;;;5089429;28;20464;-39
2022/10/26 11:39:59;;;;;;;3.30;2.43;;;19.80;99.90;;;;;;5089431;28;20422;-37
2022/10/26 11:42:56;;;;;;;3.73;2.20;;;19.90;99.90;;;;;;5089326;28;20415;-39
2022/10/26 11:45:27;;;;;;;3.80;2.20;;;19.90;99.90;;;;;;5089139;28;20521;-38
2022/10/26 11:48:05;;;;;;;5.67;2.60;;;20.10;99.90;;;;;;5089462;28;20425;-39
2022/10/26 11:50:39;;;;;;;4.20;2.53;;;20.10;99.90;;;;;;5089031;28;20560;-38
2022/10/26 11:53:30;;;;;;;5.53;2.80;;;20.20;99.90;;;;;;5089291;28;20823;-38
2022/10/26 11:55:57;;;;;;;3.00;2.23;;;20.30;99.90;;;;;;5088713;28;20414;-39
2022/10/26 11:58:25;;;;;;;5.27;2.63;;;20.30;99.90;;;;;;5092646;28;20415;-38
2022/10/26 12:01:02;;;;;;;3.20;1.90;;;20.40;99.90;;;;;;5092869;28;20449;-38
2022/10/26 12:03:34;;;;;;;6.57;2.67;;;20.50;99.90;;;;;;5092749;28;20493;-38
2022/10/26 12:06:00;;;;;;;3.03;2.03;;;20.50;99.90;;;;;;5092971;28;20986;-41
2022/10/26 12:08:36;;;;;;;3.60;1.90;;;20.60;99.90;;;;;;5091174;28;20427;-38
2022/10/26 12:11:10;;;;;;;5.50;2.10;;;20.60;99.90;;;;;;5092824;28;20450;-39
2022/10/26 12:14:18;;;;;;;2.83;2.27;;;20.70;99.90;;;;;;5092548;28;20448;-38
2022/10/26 12:17:19;;;;;;;4.30;2.40;;;20.80;99.90;;;;;;5071963;28;20418;-38
2022/10/26 12:20:09;;;;;;;3.20;2.00;;;20.80;99.90;;;;;;5082862;28;21027;-38
2022/10/26 12:22:38;;;;;;;4.40;2.07;;;20.70;99.90;;;;;;5092539;28;20418;-38
2022/10/26 12:25:04;;;;;;;3.23;1.73;;;20.70;99.90;;;;;;5092680;28;20498;-39
2022/10/26 12:27:52;;;;;;;3.30;2.13;;;20.70;99.90;;;;;;5092610;28;20928;-38
2022/10/26 12:30:17;;;;;;;2.20;2.00;;;20.70;99.90;;;;;;5092370;28;20204;-41
2022/10/26 12:32:43;;;;;;;4.67;2.40;;;20.70;99.90;;;;;;5092399;28;20417;-39
2022/10/26 12:35:43;;;;;;;2.97;2.23;;;20.70;99.90;;;;;;5092367;28;20182;-39
2022/10/26 12:38:24;;;;;;;4.70;2.20;;;20.70;99.90;;;;;;5092232;28;20172;-37
2022/10/26 12:41:05;;;;;;;4.17;1.80;;;20.70;99.90;;;;;;5092313;28;20403;-39
2022/10/26 12:43:38;;;;;;;2.20;1.80;;;20.70;99.90;;;;;;5092152;28;20425;-39
2022/10/26 12:46:12;;;;;;;3.07;1.77;;;20.70;99.90;;;;;;5092011;28;21331;-41
2022/10/26 12:48:48;;;;;;;3.17;1.90;;;20.70;99.90;;;;;;5091669;28;20416;-38
2022/10/26 12:51:20;;;;;;;3.30;1.87;;;20.70;99.90;;;;;;5092200;28;20454;-40
2022/10/26 12:54:00;;;;;;;3.47;1.90;;;20.70;99.90;;;;;;5091897;28;20960;-39
2022/10/26 12:56:54;;;;;;;5.03;1.87;;;20.70;99.90;;;;;;5091876;28;20410;-41
2022/10/26 12:59:23;;;;;;;5.00;2.03;;;20.70;99.90;;;;;;5091784;28;20413;-38
2022/10/26 13:02:22;;;;;;;4.03;1.77;;;20.70;99.90;;;;;;5092023;28;20807;-40
2022/10/26 13:05:05;;;;;;;4.13;1.70;;;20.80;99.90;;;;;;5091750;28;20406;-38
2022/10/26 13:07:39;;;;;;;3.17;1.53;;;20.80;99.90;;;;;;5090748;28;20848;-39
2022/10/26 13:10:19;;;;;;;3.07;1.57;;;20.80;99.90;;;;;;5091308;28;20465;-38
2022/10/26 13:12:49;;;;;;;3.17;1.47;;;20.80;99.90;;;;;;5091449;28;20438;-41
2022/10/26 13:15:22;;;;;;;5.47;1.40;;;20.70;99.90;;;;;;5091690;28;20932;-39